Time;durP1;ratioP1;P1;durP2;ratioP2;P2;SDS_P1;SDS_P2;PMS_P1;PMS_P2;Temp;Humidity;BMP_temperature;BMP_pressure;BME280_temperature;BME280_humidity;BME280_pressure;Samples;Min_cycle;Max_cycle;Signal;HPM_P1;HPM_P2
2023/05/30 00:00:36;;;;;;;7.07;2.67;;;11.40;1.00;;;;;;6119974;23;20179;-80
2023/05/30 00:03:04;;;;;;;8.77;3.00;;;11.20;1.00;;;;;;6120255;23;20582;-79
2023/05/30 00:05:29;;;;;;;6.33;2.37;;;11.30;1.00;;;;;;6146698;23;20493;-80
2023/05/30 00:07:56;;;;;;;9.00;3.00;;;11.20;1.00;;;;;;6146989;23;20159;-79
2023/05/30 00:10:21;;;;;;;7.03;2.90;;;11.30;1.00;;;;;;6120239;23;20286;-79
2023/05/30 00:12:47;;;;;;;6.53;2.50;;;11.40;1.00;;;;;;6146405;23;20699;-79
2023/05/30 00:15:16;;;;;;;7.43;2.23;;;11.50;1.00;;;;;;6146798;23;20158;-81
2023/05/30 00:17:41;;;;;;;10.55;2.97;;;11.50;1.00;;;;;;6120367;23;20518;-79
2023/05/30 00:20:08;;;;;;;6.77;2.80;;;11.50;1.00;;;;;;6120236;23;20176;-82
2023/05/30 00:22:36;;;;;;;8.13;2.97;;;11.40;1.00;;;;;;6146326;23;20226;-79
2023/05/30 00:25:04;;;;;;;5.80;2.40;;;11.50;1.00;;;;;;6120461;23;20300;-80
2023/05/30 00:27:29;;;;;;;8.40;2.77;;;11.40;1.00;;;;;;6120003;23;20195;-83
2023/05/30 00:29:55;;;;;;;8.03;2.50;;;11.30;1.00;;;;;;6145710;23;20183;-83
2023/05/30 00:32:20;;;;;;;7.27;2.57;;;11.30;1.00;;;;;;6119550;23;20159;-79
2023/05/30 00:34:46;;;;;;;6.63;2.37;;;11.30;1.00;;;;;;6120288;23;20163;-80
2023/05/30 00:37:11;;;;;;;8.07;3.07;;;11.30;1.00;;;;;;6119769;23;20180;-79
2023/05/30 00:39:37;;;;;;;7.20;2.50;;;11.30;1.00;;;;;;6119821;23;20183;-79
2023/05/30 00:42:04;;;;;;;10.73;2.77;;;11.10;1.00;;;;;;6119448;23;20160;-80
2023/05/30 00:44:29;;;;;;;11.10;2.83;;;11.10;1.00;;;;;;6145738;23;20155;-83
2023/05/30 00:46:55;;;;;;;8.70;2.77;;;11.00;1.00;;;;;;6119954;23;20546;-79
2023/05/30 00:49:22;;;;;;;5.70;2.40;;;10.80;1.00;;;;;;6119652;23;20459;-79
2023/05/30 00:51:47;;;;;;;7.13;2.17;;;10.80;1.00;;;;;;6119445;23;20164;-82
2023/05/30 00:54:13;;;;;;;8.17;2.70;;;10.80;1.00;;;;;;6145574;23;20508;-79
2023/05/30 00:56:40;;;;;;;5.00;2.30;;;10.70;1.00;;;;;;6119803;23;20167;-83
2023/05/30 00:59:05;;;;;;;8.90;2.20;;;10.70;1.00;;;;;;6146467;23;20175;-79
2023/05/30 01:01:32;;;;;;;12.63;3.30;;;10.70;1.00;;;;;;6119256;23;20616;-85
2023/05/30 01:03:59;;;;;;;8.43;3.15;;;10.60;1.00;;;;;;6119088;23;20481;-84
2023/05/30 01:06:27;;;;;;;7.90;2.57;;;10.70;1.00;;;;;;6146557;23;20179;-83
2023/05/30 01:09:11;;;;;;;7.90;2.60;;;10.80;1.00;;;;;;6146180;23;20179;-82
2023/05/30 01:12:02;;;;;;;6.13;2.37;;;10.80;1.00;;;;;;6119822;23;20163;-82
2023/05/30 01:14:48;;;;;;;7.67;2.30;;;10.80;1.00;;;;;;6119808;23;20243;-84
2023/05/30 01:17:55;;;;;;;6.33;2.77;;;10.80;1.00;;;;;;6119767;23;20144;-79
2023/05/30 01:20:24;;;;;;;6.43;2.40;;;10.60;1.00;;;;;;6095407;23;20184;-79
2023/05/30 01:23:06;;;;;;;7.00;2.30;;;10.60;1.00;;;;;;6119275;23;20194;-81
2023/05/30 01:26:04;;;;;;;7.83;2.40;;;10.60;1.00;;;;;;6119809;23;20573;-82
2023/05/30 01:28:33;;;;;;;8.30;2.77;;;10.70;1.00;;;;;;6146137;23;20144;-82
2023/05/30 01:31:00;;;;;;;7.17;2.43;;;10.70;1.00;;;;;;6119443;23;20187;-79
2023/05/30 01:33:27;;;;;;;7.77;2.67;;;10.60;1.00;;;;;;6145760;23;20183;-80
2023/05/30 01:35:53;;;;;;;8.73;2.40;;;10.60;1.00;;;;;;6119656;23;20164;-80
2023/05/30 01:38:18;;;;;;;8.07;2.37;;;10.50;1.00;;;;;;6119849;23;20559;-79
2023/05/30 01:40:50;;;;;;;7.30;2.73;;;10.50;1.00;;;;;;6145095;23;20198;-84
2023/05/30 01:43:29;;;;;;;8.70;2.90;;;10.40;1.00;;;;;;6145660;23;20151;-79
2023/05/30 01:46:28;;;;;;;8.17;2.37;;;10.40;1.00;;;;;;6145839;23;20150;-79
2023/05/30 01:49:21;;;;;;;7.27;2.50;;;10.40;1.00;;;;;;6145718;23;20172;-82
2023/05/30 01:51:59;;;;;;;7.30;2.40;;;10.30;1.00;;;;;;6119463;23;20638;-84
2023/05/30 01:54:28;;;;;;;8.60;2.70;;;10.20;1.00;;;;;;6119622;23;20207;-79
2023/05/30 01:57:12;;;;;;;5.00;1.93;;;10.20;1.00;;;;;;6119945;23;20166;-79
2023/05/30 01:59:39;;;;;;;5.23;2.37;;;10.20;1.00;;;;;;6145885;23;20650;-80
2023/05/30 02:02:06;;;;;;;7.73;2.63;;;10.20;1.00;;;;;;6145773;23;20538;-79
2023/05/30 02:04:31;;;;;;;6.80;2.50;;;10.20;1.00;;;;;;6118563;23;20164;-81
2023/05/30 02:06:57;;;;;;;8.43;2.40;;;10.30;1.00;;;;;;6118040;23;20633;-81
2023/05/30 02:09:23;;;;;;;7.10;2.50;;;10.40;1.00;;;;;;6144397;23;20176;-81
2023/05/30 02:11:49;;;;;;;5.83;2.43;;;10.40;1.00;;;;;;6143875;23;20166;-81
2023/05/30 02:14:14;;;;;;;8.40;3.00;;;10.20;1.00;;;;;;6117823;23;20191;-81
2023/05/30 02:16:40;;;;;;;8.67;2.47;;;10.20;1.00;;;;;;6144188;23;20207;-81
2023/05/30 02:19:06;;;;;;;7.83;2.87;;;10.20;1.00;;;;;;6118014;23;20637;-80
2023/05/30 02:21:32;;;;;;;7.50;2.70;;;10.30;1.00;;;;;;6117530;23;20383;-80
2023/05/30 02:23:58;;;;;;;8.00;2.40;;;10.30;1.00;;;;;;6118251;23;20163;-81
2023/05/30 02:26:25;;;;;;;7.60;2.60;;;10.30;1.00;;;;;;6118098;23;20214;-81
2023/05/30 02:28:51;;;;;;;8.67;3.07;;;10.10;1.00;;;;;;6118177;23;20170;-81
2023/05/30 02:31:16;;;;;;;9.13;2.83;;;9.90;1.00;;;;;;6143413;23;20180;-81
2023/05/30 02:33:43;;;;;;;9.50;2.73;;;9.70;35.00;;;;;;6117762;23;20188;-81
2023/05/30 02:36:09;;;;;;;8.80;2.67;;;9.60;91.70;;;;;;6118210;23;20643;-82
2023/05/30 02:38:34;;;;;;;8.17;2.43;;;9.40;99.90;;;;;;6143953;23;20167;-81
2023/05/30 02:41:00;;;;;;;14.80;3.40;;;9.30;99.90;;;;;;6117820;23;20222;-81
2023/05/30 02:43:26;;;;;;;9.57;3.10;;;9.40;99.90;;;;;;6117712;23;20164;-81
2023/05/30 02:45:51;;;;;;;10.80;3.30;;;9.50;99.90;;;;;;6144621;23;20604;-81
2023/05/30 02:48:18;;;;;;;11.13;3.17;;;9.40;99.90;;;;;;6117485;23;20171;-80
2023/05/30 02:50:44;;;;;;;8.00;2.63;;;9.50;99.90;;;;;;6117423;23;20476;-81
2023/05/30 02:53:10;;;;;;;9.60;2.67;;;9.40;99.90;;;;;;6119106;23;20624;-80
2023/05/30 02:55:36;;;;;;;10.47;3.40;;;9.20;99.90;;;;;;6119397;23;20407;-81
2023/05/30 02:58:01;;;;;;;9.13;2.70;;;9.20;99.90;;;;;;6119692;23;20159;-80
2023/05/30 03:00:27;;;;;;;11.93;3.30;;;9.10;99.90;;;;;;6145488;23;20183;-81
2023/05/30 03:02:54;;;;;;;9.33;2.60;;;9.20;99.90;;;;;;6119529;23;20186;-81
2023/05/30 03:05:20;;;;;;;13.83;3.43;;;9.20;99.90;;;;;;6119414;23;20167;-82
2023/05/30 03:07:46;;;;;;;13.10;3.33;;;9.20;99.90;;;;;;6145740;23;20447;-83
2023/05/30 03:10:11;;;;;;;12.17;3.33;;;9.20;99.90;;;;;;6145776;23;20175;-81
2023/05/30 03:12:37;;;;;;;9.37;2.73;;;9.30;99.90;;;;;;6145025;23;20179;-80
2023/05/30 03:15:05;;;;;;;7.77;2.73;;;9.30;99.90;;;;;;6120119;23;20156;-81
2023/05/30 03:17:30;;;;;;;10.23;3.50;;;9.40;99.90;;;;;;6119503;23;20243;-81
2023/05/30 03:19:56;;;;;;;10.03;3.23;;;9.40;99.90;;;;;;6119304;23;20660;-81
2023/05/30 03:22:22;;;;;;;10.80;3.50;;;9.50;99.90;;;;;;6145626;23;20151;-81
2023/05/30 03:24:47;;;;;;;13.00;3.40;;;9.60;99.90;;;;;;6145761;23;20432;-80
2023/05/30 03:27:13;;;;;;;9.70;3.30;;;9.80;99.90;;;;;;6146209;23;20152;-81
2023/05/30 03:29:38;;;;;;;11.37;3.57;;;9.70;99.90;;;;;;6119284;23;20230;-81
2023/05/30 03:32:04;;;;;;;10.77;3.27;;;9.60;99.90;;;;;;6119137;23;20167;-80
2023/05/30 03:34:31;;;;;;;13.27;3.63;;;9.50;99.90;;;;;;6145036;23;20451;-81
2023/05/30 03:36:57;;;;;;;12.50;3.63;;;9.40;99.90;;;;;;6119364;23;20167;-81
2023/05/30 03:39:22;;;;;;;9.43;3.00;;;9.30;99.90;;;;;;6119540;23;20179;-81
2023/05/30 03:41:48;;;;;;;10.27;3.33;;;9.20;99.90;;;;;;6119236;23;20612;-81
2023/05/30 03:44:14;;;;;;;9.93;3.20;;;9.20;99.90;;;;;;6145166;23;20547;-81
2023/05/30 03:46:40;;;;;;;11.60;3.57;;;9.40;99.90;;;;;;6119197;23;20163;-81
2023/05/30 03:49:06;;;;;;;14.27;4.10;;;9.30;99.90;;;;;;6119143;23;20513;-81
2023/05/30 03:51:32;;;;;;;12.03;3.70;;;9.10;99.90;;;;;;6118599;23;20168;-81
2023/05/30 03:53:58;;;;;;;9.90;3.30;;;9.10;99.90;;;;;;6145301;23;20226;-80
2023/05/30 03:56:25;;;;;;;16.13;4.40;;;9.10;99.90;;;;;;6145220;23;20532;-81
2023/05/30 03:58:51;;;;;;;12.43;4.00;;;9.20;99.90;;;;;;6145596;23;20151;-81
2023/05/30 04:01:17;;;;;;;13.60;4.30;;;9.40;99.90;;;;;;6145191;23;20176;-80
2023/05/30 04:03:43;;;;;;;8.87;3.87;;;9.60;99.90;;;;;;6118789;23;20246;-81
2023/05/30 04:06:10;;;;;;;13.37;3.90;;;9.80;99.90;;;;;;6119084;23;20246;-80
2023/05/30 04:08:40;;;;;;;11.40;3.60;;;9.90;99.90;;;;;;6147282;23;20156;-83
2023/05/30 04:11:06;;;;;;;13.10;4.10;;;9.90;91.30;;;;;;6118994;23;20262;-81
2023/05/30 04:13:31;;;;;;;14.93;4.40;;;9.80;99.90;;;;;;6145989;23;20315;-81
2023/05/30 04:15:59;;;;;;;12.97;4.50;;;9.60;99.90;;;;;;6119319;23;20613;-81
2023/05/30 04:18:25;;;;;;;10.13;3.67;;;9.60;99.90;;;;;;6119690;23;20210;-82
2023/05/30 04:20:51;;;;;;;15.57;4.70;;;9.50;99.90;;;;;;6120122;23;20183;-81
2023/05/30 04:23:16;;;;;;;10.37;3.17;;;9.40;99.90;;;;;;6118633;23;20167;-80
2023/05/30 04:25:44;;;;;;;14.90;4.77;;;9.50;99.90;;;;;;6118947;23;20167;-81
2023/05/30 04:28:12;;;;;;;11.07;4.23;;;9.50;99.90;;;;;;6145073;23;20160;-81
2023/05/30 04:30:40;;;;;;;13.80;4.40;;;9.70;99.90;;;;;;6145352;23;20628;-81
2023/05/30 04:33:05;;;;;;;13.93;4.00;;;9.70;99.90;;;;;;6118171;23;20902;-81
2023/05/30 04:35:32;;;;;;;13.63;4.07;;;9.90;99.90;;;;;;6118786;23;20210;-81
2023/05/30 04:37:58;;;;;;;14.53;4.00;;;10.00;99.90;;;;;;6118737;23;20175;-81
2023/05/30 04:40:25;;;;;;;14.63;3.90;;;10.20;99.90;;;;;;6145217;23;20171;-80
2023/05/30 04:42:51;;;;;;;13.30;3.93;;;10.30;99.90;;;;;;6118460;23;20177;-80
2023/05/30 04:45:18;;;;;;;12.37;3.93;;;10.80;99.90;;;;;;6144796;23;20493;-81
2023/05/30 04:47:45;;;;;;;17.67;4.30;;;10.70;99.90;;;;;;6144768;23;20652;-81
2023/05/30 04:50:14;;;;;;;13.93;4.57;;;11.00;91.40;;;;;;6118974;23;20774;-81
2023/05/30 04:52:40;;;;;;;13.40;4.47;;;11.00;64.50;;;;;;6118245;23;20254;-81
2023/05/30 04:55:06;;;;;;;13.77;4.00;;;11.20;61.50;;;;;;6118722;23;20511;-81
2023/05/30 04:57:32;;;;;;;13.17;4.20;;;11.40;56.50;;;;;;6118576;23;20690;-81
2023/05/30 04:59:58;;;;;;;16.50;4.38;;;12.30;1.00;;;;;;6144689;23;20194;-81
2023/05/30 05:02:23;;;;;;;15.82;4.40;;;13.30;1.00;;;;;;6118181;23;20159;-81
2023/05/30 05:04:49;;;;;;;11.55;3.80;;;14.20;1.00;;;;;;6118287;23;20156;-81
2023/05/30 05:07:16;;;;;;;12.00;4.03;;;15.10;1.00;;;;;;6118482;23;20170;-81
2023/05/30 05:09:42;;;;;;;12.75;4.45;;;15.10;1.00;;;;;;6118307;23;20739;-81
2023/05/30 05:12:08;;;;;;;12.55;4.30;;;15.10;1.00;;;;;;6118694;23;20243;-81
2023/05/30 05:14:33;;;;;;;10.43;3.85;;;15.30;1.00;;;;;;6144497;23;20183;-81
2023/05/30 05:16:59;;;;;;;12.00;3.90;;;15.30;1.00;;;;;;6118267;23;20163;-82
2023/05/30 05:19:24;;;;;;;11.77;4.25;;;15.30;1.00;;;;;;6144512;23;20523;-81
2023/05/30 05:21:50;;;;;;;13.00;4.50;;;15.20;1.00;;;;;;6118145;23;20166;-81
2023/05/30 05:24:15;;;;;;;12.35;3.97;;;14.70;1.00;;;;;;6118737;23;20163;-81
2023/05/30 05:26:41;;;;;;;17.23;4.90;;;14.30;1.00;;;;;;6118365;23;20221;-81
2023/05/30 05:29:06;;;;;;;12.00;4.35;;;14.00;1.00;;;;;;6118779;23;20226;-81
2023/05/30 05:31:33;;;;;;;13.23;5.25;;;13.90;1.00;;;;;;6144085;23;20167;-80
2023/05/30 05:33:58;;;;;;;15.68;4.72;;;13.10;1.00;;;;;;6144710;23;20187;-80
2023/05/30 05:36:24;;;;;;;12.63;4.22;;;12.70;1.00;;;;;;6118206;23;20167;-80
2023/05/30 05:38:50;;;;;;;15.25;4.97;;;12.40;1.00;;;;;;6144311;23;20164;-80
2023/05/30 05:41:16;;;;;;;14.75;5.53;;;12.40;1.00;;;;;;6144095;23;20668;-81
2023/05/30 05:43:41;;;;;;;15.63;5.40;;;12.40;1.00;;;;;;6117762;23;20619;-81
2023/05/30 05:46:07;;;;;;;16.35;6.03;;;12.40;1.00;;;;;;6118026;23;20165;-81
2023/05/30 05:48:32;;;;;;;13.63;5.32;;;12.20;1.00;;;;;;6117853;23;20206;-81
2023/05/30 05:50:58;;;;;;;17.95;5.15;;;12.20;1.00;;;;;;6144379;23;20207;-81
2023/05/30 05:53:24;;;;;;;17.27;5.65;;;12.20;1.00;;;;;;6144590;23;20647;-81
2023/05/30 05:55:49;;;;;;;15.27;5.93;;;12.20;1.00;;;;;;6144427;23;20474;-81
2023/05/30 05:58:15;;;;;;;13.93;5.55;;;12.10;1.00;;;;;;6117837;23;20167;-81
2023/05/30 06:00:40;;;;;;;14.65;5.40;;;12.10;1.00;;;;;;6144198;23;20294;-81
2023/05/30 06:03:06;;;;;;;14.63;5.80;;;11.90;1.00;;;;;;6143973;23;20187;-81
2023/05/30 06:05:31;;;;;;;18.15;6.07;;;11.90;1.00;;;;;;6144619;23;20160;-81
2023/05/30 06:07:58;;;;;;;12.18;5.15;;;12.10;1.00;;;;;;6118142;23;20179;-81
2023/05/30 06:10:24;;;;;;;17.80;5.85;;;12.40;1.00;;;;;;6118492;23;20487;-81
2023/05/30 06:12:50;;;;;;;15.27;5.97;;;12.70;1.00;;;;;;6143714;23;20187;-81
2023/05/30 06:15:15;;;;;;;15.90;5.82;;;12.50;1.00;;;;;;6117770;23;20218;-81
2023/05/30 06:17:41;;;;;;;15.02;5.47;;;12.50;1.00;;;;;;6144263;23;20204;-81
2023/05/30 06:20:07;;;;;;;11.80;5.65;;;12.70;1.00;;;;;;6118044;23;20903;-81
2023/05/30 06:22:33;;;;;;;15.35;5.63;;;12.80;1.00;;;;;;6144123;23;20676;-81
2023/05/30 06:24:58;;;;;;;14.10;5.60;;;13.30;1.00;;;;;;6144481;23;20190;-81
2023/05/30 06:27:24;;;;;;;14.90;5.28;;;14.50;1.00;;;;;;6119471;23;20155;-81
2023/05/30 06:29:49;;;;;;;14.77;4.85;;;16.80;1.00;;;;;;6119679;23;20266;-81
2023/05/30 06:32:15;;;;;;;16.17;5.47;;;16.80;1.00;;;;;;6119730;23;20182;-82
2023/05/30 06:34:41;;;;;;;12.52;4.68;;;16.30;1.00;;;;;;6146353;23;20160;-81
2023/05/30 06:37:06;;;;;;;12.73;5.30;;;15.90;1.00;;;;;;6119582;23;20531;-83
2023/05/30 06:39:32;;;;;;;15.18;4.93;;;15.80;1.00;;;;;;6146151;23;20540;-81
2023/05/30 06:41:57;;;;;;;12.30;5.38;;;15.50;1.00;;;;;;6145561;23;20498;-81
2023/05/30 06:44:23;;;;;;;14.88;5.07;;;15.30;1.00;;;;;;6119706;23;20612;-81
2023/05/30 06:46:49;;;;;;;12.77;4.82;;;14.90;1.00;;;;;;6145820;23;20168;-81
2023/05/30 06:49:14;;;;;;;12.60;5.20;;;15.00;1.00;;;;;;6119774;23;20172;-81
2023/05/30 06:51:40;;;;;;;13.57;5.30;;;15.10;1.00;;;;;;6119975;23;20626;-81
2023/05/30 06:54:05;;;;;;;11.63;5.32;;;14.90;1.00;;;;;;6119883;23;20187;-81
2023/05/30 06:56:31;;;;;;;15.63;5.18;;;15.60;1.00;;;;;;6119381;23;20163;-82
2023/05/30 06:58:57;;;;;;;11.50;4.68;;;15.80;1.00;;;;;;6119561;23;20156;-81
2023/05/30 07:01:23;;;;;;;13.25;4.95;;;15.60;1.00;;;;;;6118940;23;20182;-81
2023/05/30 07:03:48;;;;;;;11.32;4.55;;;16.20;1.00;;;;;;6120139;23;20163;-81
2023/05/30 07:06:14;;;;;;;11.15;4.47;;;16.90;1.00;;;;;;6145718;23;20214;-81
2023/05/30 07:08:39;;;;;;;12.52;4.70;;;16.80;1.00;;;;;;6119685;23;20168;-82
2023/05/30 07:11:08;;;;;;;13.77;5.20;;;16.80;1.00;;;;;;6119669;23;20183;-82
2023/05/30 07:13:33;;;;;;;15.80;5.18;;;17.40;1.00;;;;;;6119402;23;20197;-82
2023/05/30 07:15:59;;;;;;;16.42;4.65;;;18.00;1.00;;;;;;6119759;23;20223;-81
2023/05/30 07:18:25;;;;;;;10.80;4.20;;;18.60;1.00;;;;;;6145721;23;20489;-81
2023/05/30 07:20:51;;;;;;;9.38;4.28;;;19.90;1.00;;;;;;6145429;23;20172;-81
2023/05/30 07:23:17;;;;;;;14.02;5.10;;;21.60;1.00;;;;;;6119141;23;20934;-81
2023/05/30 07:25:43;;;;;;;12.25;4.47;;;21.10;1.00;;;;;;6119300;23;20961;-81
2023/05/30 07:28:08;;;;;;;12.55;4.68;;;19.30;1.00;;;;;;6119444;23;20225;-81
2023/05/30 07:30:34;;;;;;;12.30;4.85;;;18.30;1.00;;;;;;6119014;23;20648;-81
2023/05/30 07:32:59;;;;;;;10.50;4.97;;;18.20;1.00;;;;;;6119135;23;20195;-81
2023/05/30 07:35:25;;;;;;;11.52;4.70;;;16.70;1.00;;;;;;6119201;23;20160;-81
2023/05/30 07:37:52;;;;;;;11.38;4.85;;;16.30;1.00;;;;;;6145864;23;20175;-81
2023/05/30 07:40:18;;;;;;;11.05;4.68;;;15.90;1.00;;;;;;6119252;23;20236;-81
2023/05/30 07:42:44;;;;;;;13.38;5.28;;;15.90;1.00;;;;;;6119522;23;20164;-82
2023/05/30 07:45:10;;;;;;;9.35;4.10;;;16.30;1.00;;;;;;6119433;23;20238;-81
2023/05/30 07:47:36;;;;;;;15.48;5.15;;;16.20;1.00;;;;;;6145371;23;20597;-82
2023/05/30 07:50:01;;;;;;;13.85;5.63;;;16.10;1.00;;;;;;6119193;23;20235;-82
2023/05/30 07:52:27;;;;;;;13.55;5.95;;;16.00;1.00;;;;;;6118774;23;20163;-81
2023/05/30 07:54:52;;;;;;;15.23;5.75;;;15.60;1.00;;;;;;6119487;23;20206;-81
2023/05/30 07:57:18;;;;;;;19.58;6.75;;;15.90;1.00;;;;;;6119016;23;20222;-81
2023/05/30 07:59:43;;;;;;;16.38;5.72;;;15.20;1.00;;;;;;6119254;23;20175;-81
2023/05/30 08:02:09;;;;;;;13.27;5.10;;;15.30;1.00;;;;;;6145051;23;20155;-81
2023/05/30 08:04:36;;;;;;;9.70;4.70;;;15.20;1.00;;;;;;6145224;23;20171;-81
2023/05/30 08:07:02;;;;;;;12.05;4.43;;;15.70;1.00;;;;;;6119043;23;20182;-81
2023/05/30 08:09:30;;;;;;;14.88;5.63;;;16.20;1.00;;;;;;6118699;23;20715;-81
2023/05/30 08:11:58;;;;;;;11.98;4.47;;;16.40;1.00;;;;;;6118792;23;20167;-81
2023/05/30 08:14:24;;;;;;;13.95;4.93;;;16.40;1.00;;;;;;6119075;23;20219;-81
2023/05/30 08:16:50;;;;;;;10.93;4.70;;;16.20;1.00;;;;;;6144811;23;20159;-80
2023/05/30 08:19:16;;;;;;;12.45;5.55;;;15.90;1.00;;;;;;6146028;23;20225;-81
2023/05/30 08:21:43;;;;;;;12.23;4.80;;;15.70;1.00;;;;;;6145590;23;20155;-81
2023/05/30 08:24:11;;;;;;;13.50;5.10;;;15.40;1.00;;;;;;6118575;23;20850;-83
2023/05/30 08:26:39;;;;;;;11.93;5.28;;;15.50;1.00;;;;;;6144981;23;20162;-81
2023/05/30 08:29:05;;;;;;;13.02;5.03;;;15.40;1.00;;;;;;6118775;23;20168;-81
2023/05/30 08:31:31;;;;;;;11.95;4.75;;;15.60;1.00;;;;;;6118380;23;20160;-82
2023/05/30 08:33:56;;;;;;;13.48;4.80;;;15.50;1.00;;;;;;6145240;23;20254;-81
2023/05/30 08:36:22;;;;;;;13.35;6.53;;;15.70;1.00;;;;;;6118745;23;20600;-81
2023/05/30 08:38:53;;;;;;;14.63;6.25;;;15.60;1.00;;;;;;6118727;23;20608;-81
2023/05/30 08:41:22;;;;;;;10.25;4.70;;;15.60;1.00;;;;;;6144497;23;20182;-82
2023/05/30 08:43:49;;;;;;;14.57;5.22;;;15.60;1.00;;;;;;6119105;23;20160;-81
2023/05/30 08:46:16;;;;;;;10.60;4.28;;;15.60;1.00;;;;;;6144658;23;20160;-81
2023/05/30 08:48:42;;;;;;;12.65;4.47;;;15.80;1.00;;;;;;6144533;23;20159;-82
2023/05/30 08:51:12;;;;;;;10.05;4.88;;;15.90;1.00;;;;;;6144314;23;20218;-81
2023/05/30 08:53:45;;;;;;;11.07;4.25;;;16.80;1.00;;;;;;6144673;23;20183;-82
2023/05/30 08:56:14;;;;;;;10.18;4.45;;;17.00;1.00;;;;;;6144838;23;20242;-81
2023/05/30 08:58:43;;;;;;;12.82;4.60;;;16.30;1.00;;;;;;6118955;23;20160;-82
2023/05/30 09:01:10;;;;;;;10.07;4.35;;;16.40;1.00;;;;;;6144614;23;20244;-81
2023/05/30 09:03:37;;;;;;;9.20;4.10;;;16.50;1.00;;;;;;6118481;23;20174;-81
2023/05/30 09:06:04;;;;;;;15.88;3.97;;;16.50;1.00;;;;;;6118439;23;20488;-81
2023/05/30 09:08:30;;;;;;;12.57;4.60;;;16.50;1.00;;;;;;6118682;23;20222;-81
2023/05/30 09:10:57;;;;;;;8.52;3.58;;;16.40;1.00;;;;;;6118246;23;20631;-81
2023/05/30 09:13:23;;;;;;;10.93;4.45;;;16.30;1.00;;;;;;6117902;23;20215;-83
2023/05/30 09:15:49;;;;;;;9.93;3.78;;;16.30;1.00;;;;;;6144948;23;20171;-81
2023/05/30 09:18:16;;;;;;;11.35;4.40;;;16.30;1.00;;;;;;6118386;23;20167;-81
2023/05/30 09:20:49;;;;;;;10.40;4.15;;;16.80;1.00;;;;;;5069679;27;20656;-82
2023/05/30 09:23:15;;;;;;;10.95;4.10;;;16.30;1.00;;;;;;5059828;28;20239;-81
2023/05/30 09:25:42;;;;;;;11.93;4.25;;;16.10;1.00;;;;;;5058766;28;20185;-81
2023/05/30 09:28:09;;;;;;;10.65;3.88;;;16.10;1.00;;;;;;5059945;28;20284;-81
2023/05/30 09:30:34;;;;;;;11.68;3.65;;;16.20;1.00;;;;;;5059691;28;20239;-81
2023/05/30 09:33:03;;;;;;;13.40;3.88;;;16.50;1.00;;;;;;5058397;28;21097;-81
2023/05/30 09:35:29;;;;;;;8.35;4.07;;;16.70;1.00;;;;;;5059764;28;20200;-81
2023/05/30 09:37:55;;;;;;;8.80;3.53;;;16.70;1.00;;;;;;5059544;28;20284;-80
2023/05/30 09:40:23;;;;;;;9.07;3.70;;;17.50;1.00;;;;;;5058161;28;20217;-81
2023/05/30 09:42:51;;;;;;;10.93;3.80;;;16.70;1.00;;;;;;5058215;28;20260;-81
2023/05/30 09:45:23;;;;;;;10.10;3.88;;;16.90;1.00;;;;;;5058160;28;20216;-81
2023/05/30 09:47:51;;;;;;;10.02;3.40;;;17.00;1.00;;;;;;5060135;28;20197;-80
2023/05/30 09:50:18;;;;;;;10.57;3.60;;;17.50;1.00;;;;;;5059325;28;20201;-81
2023/05/30 09:52:44;;;;;;;8.57;3.63;;;17.20;1.00;;;;;;5059428;28;20190;-81
2023/05/30 09:55:13;;;;;;;10.13;3.88;;;17.10;1.00;;;;;;5059483;28;20185;-81
2023/05/30 09:57:40;;;;;;;12.43;3.70;;;17.30;1.00;;;;;;5057864;28;20755;-81
2023/05/30 10:00:11;;;;;;;10.75;3.50;;;17.60;1.00;;;;;;5058885;28;20244;-81
2023/05/30 10:02:39;;;;;;;11.90;3.85;;;17.30;1.00;;;;;;5059006;28;20178;-82
2023/05/30 10:05:06;;;;;;;9.80;3.70;;;17.20;1.00;;;;;;5059091;28;20481;-82
2023/05/30 10:07:32;;;;;;;9.18;3.30;;;17.20;1.00;;;;;;5059277;28;20181;-81
2023/05/30 10:09:58;;;;;;;11.30;3.83;;;17.50;1.00;;;;;;5057379;28;20240;-81
2023/05/30 10:12:24;;;;;;;9.18;3.90;;;17.80;1.00;;;;;;5057806;28;20216;-81
2023/05/30 10:14:50;;;;;;;8.43;3.42;;;17.80;1.00;;;;;;5058802;28;20616;-80
2023/05/30 10:17:20;;;;;;;8.73;3.72;;;18.00;1.00;;;;;;5058865;28;20190;-81
2023/05/30 10:20:16;;;;;;;8.93;3.67;;;17.80;1.00;;;;;;5058620;28;21094;-81
2023/05/30 10:22:46;;;;;;;12.00;4.38;;;17.70;1.00;;;;;;5056895;28;20190;-81
2023/05/30 10:25:12;;;;;;;9.90;4.03;;;17.90;1.00;;;;;;5059133;28;20805;-81
2023/05/30 10:27:48;;;;;;;9.75;3.83;;;17.60;1.00;;;;;;5058925;28;20214;-81
2023/05/30 10:30:17;;;;;;;9.35;3.33;;;18.00;1.00;;;;;;5056228;28;20359;-81
2023/05/30 10:32:47;;;;;;;7.43;3.13;;;18.50;1.00;;;;;;5045405;28;20197;-81
2023/05/30 10:35:19;;;;;;;10.57;3.58;;;18.60;1.00;;;;;;5045427;28;20249;-81
2023/05/30 10:37:46;;;;;;;10.35;3.58;;;18.40;1.00;;;;;;5044894;28;20269;-81
2023/05/30 10:40:33;;;;;;;10.73;3.40;;;18.30;1.00;;;;;;5045337;28;20711;-81
2023/05/30 10:43:02;;;;;;;7.40;3.00;;;18.10;1.00;;;;;;5045030;28;20190;-81
2023/05/30 10:45:42;;;;;;;7.72;3.25;;;17.90;1.00;;;;;;5044819;28;20187;-81
2023/05/30 10:48:21;;;;;;;8.27;3.15;;;18.00;1.00;;;;;;5043892;28;20211;-81
2023/05/30 10:50:50;;;;;;;9.30;3.70;;;18.10;1.00;;;;;;5045310;28;20565;-81
2023/05/30 10:53:18;;;;;;;10.25;3.50;;;18.30;1.00;;;;;;5044617;28;20190;-81
2023/05/30 10:55:49;;;;;;;10.32;3.08;;;18.10;1.00;;;;;;5044923;28;20193;-81
2023/05/30 10:58:34;;;;;;;11.38;3.33;;;18.00;1.00;;;;;;5044740;28;20186;-81
2023/05/30 11:01:22;;;;;;;7.38;3.05;;;18.00;1.00;;;;;;5043524;28;20320;-81
2023/05/30 11:03:48;;;;;;;8.85;3.72;;;18.10;1.00;;;;;;5044495;28;20205;-81
2023/05/30 11:06:14;;;;;;;7.10;3.00;;;18.50;1.00;;;;;;5045286;28;20648;-82
2023/05/30 11:08:40;;;;;;;9.05;3.60;;;18.30;1.00;;;;;;5043182;28;20325;-81
2023/05/30 11:11:16;;;;;;;9.00;3.03;;;18.00;1.00;;;;;;5044737;28;20293;-81
2023/05/30 11:13:47;;;;;;;9.73;3.38;;;17.90;1.00;;;;;;5044444;28;20919;-81
2023/05/30 11:16:25;;;;;;;8.57;3.08;;;18.20;1.00;;;;;;5043015;28;20182;-81
2023/05/30 11:18:54;;;;;;;10.25;3.60;;;18.50;1.00;;;;;;5042739;28;20908;-81
2023/05/30 11:21:58;;;;;;;9.55;3.05;;;18.70;1.00;;;;;;5044265;28;20352;-81
2023/05/30 11:24:29;;;;;;;7.95;3.17;;;18.60;1.00;;;;;;5045164;28;20564;-81
2023/05/30 11:27:06;;;;;;;9.02;3.00;;;18.60;1.00;;;;;;5044576;28;20232;-81
2023/05/30 11:29:33;;;;;;;8.52;2.92;;;18.50;1.00;;;;;;5043972;28;20630;-81
2023/05/30 11:32:00;;;;;;;8.25;3.10;;;18.90;1.00;;;;;;5044165;28;20611;-81
2023/05/30 11:34:25;;;;;;;7.35;3.15;;;18.90;1.00;;;;;;5043029;28;20556;-81
2023/05/30 11:36:52;;;;;;;9.05;3.17;;;19.10;1.00;;;;;;5042755;28;20186;-81
2023/05/30 11:39:22;;;;;;;7.80;3.00;;;19.30;1.00;;;;;;5042405;28;20622;-81
2023/05/30 11:41:48;;;;;;;7.55;2.78;;;19.50;1.00;;;;;;5043542;28;20554;-81
2023/05/30 11:44:14;;;;;;;7.18;2.72;;;19.10;1.00;;;;;;5043688;28;20179;-81
2023/05/30 11:46:41;;;;;;;7.85;2.97;;;19.50;1.00;;;;;;5044245;28;20186;-81
2023/05/30 11:49:07;;;;;;;11.80;2.92;;;20.30;1.00;;;;;;5042713;28;20194;-81
2023/05/30 11:51:33;;;;;;;9.20;3.55;;;20.60;1.00;;;;;;5043916;28;20201;-82
2023/05/30 11:53:59;;;;;;;8.95;2.65;;;20.00;1.00;;;;;;5043873;28;20186;-81
2023/05/30 11:56:29;;;;;;;8.20;3.17;;;19.90;1.00;;;;;;5042659;28;20178;-81
2023/05/30 11:58:56;;;;;;;9.52;3.25;;;19.70;1.00;;;;;;5044032;28;20440;-81
2023/05/30 12:01:23;;;;;;;8.30;2.70;;;19.40;1.00;;;;;;5042084;28;20193;-81
2023/05/30 12:03:48;;;;;;;9.02;2.65;;;19.70;1.00;;;;;;5043744;28;20240;-81
2023/05/30 12:06:14;;;;;;;7.70;2.97;;;19.60;1.00;;;;;;5043559;28;20190;-82
2023/05/30 12:08:42;;;;;;;5.50;2.70;;;19.70;1.00;;;;;;5043364;28;20352;-81
2023/05/30 12:11:10;;;;;;;6.93;2.65;;;19.50;1.00;;;;;;5042132;28;20198;-81
2023/05/30 12:13:36;;;;;;;8.15;3.08;;;19.50;1.00;;;;;;5043376;28;20484;-81
2023/05/30 12:16:01;;;;;;;5.90;2.75;;;19.50;1.00;;;;;;5042002;28;20190;-81
2023/05/30 12:18:27;;;;;;;6.10;2.72;;;19.70;1.00;;;;;;5043671;28;20182;-81
2023/05/30 12:20:52;;;;;;;8.38;2.65;;;20.30;1.00;;;;;;5041604;28;20630;-81
2023/05/30 12:23:28;;;;;;;7.07;2.60;;;19.50;1.00;;;;;;5043327;28;20598;-81
2023/05/30 12:25:55;;;;;;;8.80;2.75;;;19.60;1.00;;;;;;5043312;28;20182;-81
2023/05/30 12:28:21;;;;;;;7.70;3.03;;;19.70;1.00;;;;;;5043306;28;20186;-82
2023/05/30 12:30:50;;;;;;;7.50;2.75;;;20.30;1.00;;;;;;5043213;28;20215;-81
2023/05/30 12:33:17;;;;;;;8.85;2.83;;;20.30;1.00;;;;;;5043005;28;20186;-81
2023/05/30 12:35:44;;;;;;;7.13;2.33;;;19.90;1.00;;;;;;5042809;28;20182;-82
2023/05/30 12:38:12;;;;;;;6.97;2.25;;;19.90;1.00;;;;;;5041683;28;20178;-81
2023/05/30 12:40:46;;;;;;;6.43;2.15;;;20.00;1.00;;;;;;5041353;28;20271;-81
2023/05/30 12:43:13;;;;;;;8.70;2.53;;;19.80;1.00;;;;;;5042823;28;20222;-81
2023/05/30 12:45:38;;;;;;;6.40;2.90;;;19.60;1.00;;;;;;5043380;28;20642;-81
2023/05/30 12:48:04;;;;;;;7.10;2.13;;;19.70;1.00;;;;;;5042753;28;20261;-81
2023/05/30 12:50:29;;;;;;;9.40;3.05;;;20.50;1.00;;;;;;5041554;28;20552;-82
2023/05/30 12:52:55;;;;;;;8.73;2.35;;;21.10;1.00;;;;;;5042885;28;20213;-81